Time;durP1;ratioP1;P1;durP2;ratioP2;P2;SDS_P1;SDS_P2;PMS_P1;PMS_P2;Temp;Humidity;BMP_temperature;BMP_pressure;BME280_temperature;BME280_humidity;BME280_pressure;Samples;Min_cycle;Max_cycle;Signal;HPM_P1;HPM_P2
2022/06/18 00:53:13;;;;;;;11.80;6.60;;;;;;;20.74;100.00;95020.22;4984675;28;20403;-89
2022/06/18 00:55:48;;;;;;;11.80;5.78;;;;;;;20.68;100.00;95018.84;4970388;28;20383;-89
2022/06/18 00:58:43;;;;;;;10.05;6.20;;;;;;;20.34;100.00;95018.56;4985055;28;20035;-89
2022/06/18 01:01:15;;;;;;;14.95;6.38;;;;;;;19.90;100.00;95012.41;4985383;28;20073;-90
2022/06/18 01:03:43;;;;;;;9.70;6.13;;;;;;;19.85;100.00;95018.66;4989380;28;20035;-91
2022/06/18 01:06:16;;;;;;;14.93;7.25;;;;;;;19.96;100.00;95016.50;4961004;28;20035;-89
2022/06/18 01:08:42;;;;;;;12.10;6.60;;;;;;;19.81;100.00;95014.25;4944184;29;20035;-90
2022/06/18 01:11:17;;;;;;;9.10;5.88;;;;;;;19.96;100.00;95015.72;4953929;28;20053;-89
2022/06/18 01:13:42;;;;;;;9.85;6.03;;;;;;;20.29;100.00;95020.59;4982644;28;20030;-90
2022/06/18 01:16:09;;;;;;;9.32;5.40;;;;;;;20.34;100.00;95013.22;4979510;28;20030;-89
2022/06/18 01:18:36;;;;;;;10.60;5.68;;;;;;;20.29;100.00;95017.94;4998356;28;20027;-89
2022/06/18 01:21:36;;;;;;;9.10;5.60;;;;;;;20.30;100.00;95019.50;4982385;28;20062;-89
2022/06/18 01:24:21;;;;;;;11.48;5.80;;;;;;;20.21;100.00;95019.50;4997772;28;20049;-89
2022/06/18 01:26:49;;;;;;;12.02;5.22;;;;;;;20.24;100.00;95028.75;4982029;28;20030;-89
2022/06/18 01:29:15;;;;;;;10.27;5.57;;;;;;;19.89;100.00;95026.78;4981901;28;20049;-89
2022/06/18 01:31:41;;;;;;;9.63;5.30;;;;;;;20.08;100.00;95023.09;4982428;28;20027;-90
2022/06/18 01:34:08;;;;;;;11.63;5.40;;;;;;;20.05;100.00;95021.81;4997995;28;20090;-90
2022/06/18 01:36:35;;;;;;;7.90;5.25;;;;;;;19.91;100.00;95022.72;4981800;28;20026;-90
2022/06/18 01:39:03;;;;;;;8.73;5.68;;;;;;;19.71;100.00;95016.09;4981915;28;20068;-89
2022/06/18 01:41:51;;;;;;;10.95;5.95;;;;;;;19.53;100.00;95019.81;4981679;28;20036;-89
2022/06/18 01:44:25;;;;;;;12.85;5.75;;;;;;;19.57;100.00;95018.09;4983598;28;20033;-89
2022/06/18 01:46:52;;;;;;;9.40;5.38;;;;;;;19.87;100.00;95010.34;4981797;28;20037;-90
2022/06/18 01:49:22;;;;;;;8.60;5.35;;;;;;;20.08;100.00;95010.56;4981487;28;20026;-89
2022/06/18 01:51:50;;;;;;;13.45;4.97;;;;;;;20.23;100.00;95011.19;4997450;28;20402;-89
2022/06/18 01:54:21;;;;;;;9.30;4.78;;;;;;;20.39;100.00;95009.63;4997906;28;20026;-90
2022/06/18 01:56:50;;;;;;;7.78;5.13;;;;;;;20.32;100.00;95012.78;4981494;28;20061;-91
2022/06/18 01:59:20;;;;;;;10.93;4.75;;;;;;;20.33;100.00;95005.56;4981363;28;20026;-90
2022/06/18 02:01:46;;;;;;;8.52;5.10;;;;;;;20.22;100.00;95004.28;4997628;28;20077;-90
2022/06/18 02:04:14;;;;;;;12.32;5.25;;;;;;;20.27;100.00;95006.81;4981369;28;20035;-89
2022/06/18 02:06:39;;;;;;;7.57;4.80;;;;;;;20.19;100.00;95005.72;4980967;28;20026;-89
2022/06/18 02:09:09;;;;;;;6.32;5.05;;;;;;;20.26;100.00;95005.25;4981514;28;20030;-89
2022/06/18 02:11:34;;;;;;;9.40;5.60;;;;;;;19.99;100.00;94999.13;4997593;28;20105;-90
2022/06/18 02:14:06;;;;;;;10.27;5.60;;;;;;;19.73;100.00;95005.97;4997352;28;20054;-88
2022/06/18 02:16:37;;;;;;;16.38;5.43;;;;;;;19.48;100.00;95007.44;4997383;28;20458;-89
2022/06/18 02:19:04;;;;;;;8.43;5.70;;;;;;;19.58;100.00;95004.50;4981273;28;20053;-90
2022/06/18 02:21:31;;;;;;;11.30;5.40;;;;;;;19.85;100.00;95008.00;4980977;28;20030;-90
2022/06/18 02:23:57;;;;;;;10.13;5.70;;;;;;;19.95;100.00;95012.28;4981169;28;20462;-90
2022/06/18 02:26:25;;;;;;;10.85;5.50;;;;;;;19.80;100.00;95018.81;4981092;28;20026;-90
2022/06/18 02:28:52;;;;;;;12.70;5.38;;;;;;;20.14;100.00;95013.84;4981054;28;20073;-89
2022/06/18 02:31:27;;;;;;;8.82;5.18;;;;;;;19.84;100.00;95027.72;4981095;28;20439;-90
2022/06/18 02:34:00;;;;;;;9.75;4.57;;;;;;;19.88;100.00;95023.34;4981054;28;20034;-89
2022/06/18 02:36:32;;;;;;;6.03;4.65;;;;;;;19.77;100.00;95030.84;4997171;28;20080;-90
2022/06/18 02:39:34;;;;;;;9.30;5.10;;;;;;;19.57;100.00;95024.22;4980770;28;20022;-91
2022/06/18 02:42:14;;;;;;;7.72;4.50;;;;;;;19.69;100.00;95023.59;4978341;28;20093;-88
2022/06/18 02:44:42;;;;;;;12.98;5.72;;;;;;;19.86;100.00;95028.19;4997020;28;20057;-90
2022/06/18 02:47:08;;;;;;;9.77;4.25;;;;;;;19.83;100.00;95030.69;4980702;28;20022;-90
2022/06/18 02:49:36;;;;;;;8.50;5.10;;;;;;;19.79;100.00;95025.19;4980678;28;20131;-91
2022/06/18 02:52:04;;;;;;;8.55;4.45;;;;;;;19.74;100.00;95028.00;4980585;28;20073;-90
2022/06/18 02:54:29;;;;;;;10.82;5.22;;;;;;;19.74;100.00;95028.00;4980847;28;20026;-90
2022/06/18 02:56:55;;;;;;;8.23;4.90;;;;;;;19.59;100.00;95016.72;4980943;28;20033;-90
2022/06/18 02:59:20;;;;;;;11.15;4.78;;;;;;;19.60;100.00;95022.81;4980926;28;20026;-90
2022/06/18 03:01:46;;;;;;;14.85;5.78;;;;;;;19.06;100.00;95032.44;4980409;28;20029;-89
2022/06/18 03:04:11;;;;;;;12.95;6.10;;;;;;;19.26;100.00;95040.97;4997128;28;20032;-89
2022/06/18 03:06:37;;;;;;;8.30;5.95;;;;;;;19.25;100.00;95042.06;4980716;28;20030;-89
2022/06/18 03:09:06;;;;;;;12.20;6.05;;;;;;;19.25;100.00;95044.72;4980723;28;20088;-89
2022/06/18 03:14:18;;;;;;;12.35;5.80;;;;;;;19.19;100.00;95043.28;4986361;28;20085;-90
2022/06/18 03:16:44;;;;;;;9.25;4.97;;;;;;;19.46;100.00;95039.66;4970267;28;20038;-90
2022/06/18 03:19:23;;;;;;;6.57;4.53;;;;;;;19.46;100.00;95037.00;4972166;28;20061;-90
2022/06/18 03:21:51;;;;;;;8.45;5.45;;;;;;;19.26;100.00;95040.19;5000818;28;20077;-89
2022/06/18 03:24:16;;;;;;;14.52;5.57;;;;;;;19.09;100.00;95046.22;4984744;28;20069;-90
2022/06/18 03:26:42;;;;;;;11.23;5.15;;;;;;;19.09;100.00;95052.31;4984415;28;20328;-89
2022/06/18 03:29:08;;;;;;;10.80;5.32;;;;;;;19.18;100.00;95055.00;4984677;28;20046;-90
2022/06/18 03:31:35;;;;;;;7.47;5.40;;;;;;;19.33;100.00;95062.56;5000001;28;20028;-89
2022/06/18 03:34:00;;;;;;;10.48;5.07;;;;;;;19.46;100.00;95054.81;4983845;28;20030;-89
2022/06/18 03:36:26;;;;;;;10.70;4.88;;;;;;;19.39;100.00;95054.47;4984100;28;20442;-89
2022/06/18 03:38:51;;;;;;;9.75;5.82;;;;;;;19.31;100.00;95054.13;4999671;28;20026;-89
2022/06/18 03:41:19;;;;;;;10.50;5.63;;;;;;;19.55;100.00;95047.66;4983882;28;20420;-88
2022/06/18 03:43:45;;;;;;;7.97;5.40;;;;;;;19.03;100.00;95061.50;5000163;28;20030;-89
2022/06/18 03:46:13;;;;;;;9.75;5.20;;;;;;;19.06;100.00;95050.25;4999918;28;20026;-90
2022/06/18 03:48:46;;;;;;;11.35;5.25;;;;;;;19.31;100.00;95053.34;4983137;28;20423;-89
2022/06/18 03:51:12;;;;;;;6.13;5.18;;;;;;;19.60;100.00;95049.41;4999688;28;20030;-89
2022/06/18 03:53:38;;;;;;;11.23;5.30;;;;;;;19.51;100.00;95044.06;4999877;28;20049;-89
2022/06/18 03:56:04;;;;;;;11.27;5.00;;;;;;;19.62;100.00;95045.31;4983682;28;20030;-89
2022/06/18 03:58:32;;;;;;;11.45;5.55;;;;;;;19.25;100.00;95046.59;4999274;28;20501;-89
2022/06/18 04:00:58;;;;;;;10.88;5.82;;;;;;;19.04;100.00;95045.25;4983218;28;20368;-89
2022/06/18 04:03:23;;;;;;;7.03;4.90;;;;;;;19.31;100.00;95048.81;4983302;28;20029;-88
2022/06/18 04:05:49;;;;;;;11.75;5.20;;;;;;;19.05;100.00;95052.13;4983234;28;20038;-89
2022/06/18 04:08:17;;;;;;;8.32;4.82;;;;;;;19.14;100.00;95049.50;4983614;28;20435;-88
2022/06/18 04:10:43;;;;;;;7.07;4.85;;;;;;;19.40;100.00;95050.72;4999741;28;20026;-89
2022/06/18 04:13:09;;;;;;;10.82;5.00;;;;;;;19.54;100.00;95042.63;4982902;28;20450;-89
2022/06/18 04:15:35;;;;;;;12.85;6.05;;;;;;;19.66;100.00;95052.69;4983037;28;20084;-89
2022/06/18 04:18:07;;;;;;;10.93;5.25;;;;;;;19.58;100.00;95054.22;4999201;28;20053;-91
2022/06/18 04:20:35;;;;;;;13.52;4.70;;;;;;;19.56;100.00;95054.53;4991596;28;20027;-88
2022/06/18 04:23:31;;;;;;;9.80;4.78;;;;;;;19.67;100.00;95051.59;4943997;29;20037;-88
2022/06/18 04:26:03;;;;;;;10.07;5.47;;;;;;;19.15;100.00;95060.94;4961751;28;20106;-87
2022/06/18 04:28:54;;;;;;;8.23;5.07;;;;;;;18.91;100.00;95060.16;4979485;28;20030;-87
2022/06/18 04:34:44;;;;;;;11.13;5.43;;;;;;;19.64;100.00;95051.09;4980556;28;20089;-87
2022/06/18 04:37:12;;;;;;;13.32;4.55;;;;;;;19.54;100.00;95061.25;4963894;28;20348;-88
2022/06/18 04:39:38;;;;;;;9.02;5.00;;;;;;;19.81;100.00;95060.25;4979112;28;20053;-87
2022/06/18 04:42:03;;;;;;;7.78;4.60;;;;;;;19.83;100.00;95052.75;4963213;28;20019;-88
2022/06/18 04:44:29;;;;;;;10.75;4.70;;;;;;;20.01;100.00;95058.13;4979014;28;20027;-87
2022/06/18 04:46:54;;;;;;;9.00;4.80;;;;;;;19.54;100.00;95066.56;4979581;28;20066;-86
2022/06/18 04:49:20;;;;;;;10.30;5.05;;;;;;;19.39;100.00;95065.88;4978780;28;20026;-86
2022/06/18 04:51:48;;;;;;;9.85;5.55;;;;;;;19.24;100.00;95060.97;4978557;28;20038;-87
2022/06/18 04:54:14;;;;;;;8.18;5.45;;;;;;;19.27;100.00;95061.16;4978957;28;20031;-86
2022/06/18 04:56:39;;;;;;;10.80;5.00;;;;;;;19.88;100.00;95060.56;4978517;28;20458;-86
2022/06/18 04:59:05;;;;;;;9.05;4.78;;;;;;;20.05;100.00;95062.50;4978547;28;20057;-87
2022/06/18 05:01:31;;;;;;;7.60;5.15;;;;;;;20.37;100.00;95065.06;4978603;28;20332;-87
2022/06/18 05:03:56;;;;;;;9.48;5.07;;;;;;;20.48;100.00;95065.53;4962901;28;20058;-86
2022/06/18 05:06:22;;;;;;;8.57;5.30;;;;;;;19.98;100.00;95064.84;4962894;28;20336;-86
2022/06/18 05:08:47;;;;;;;6.75;4.78;;;;;;;20.16;100.00;95065.66;4978278;28;20027;-86
2022/06/18 05:11:12;;;;;;;9.32;5.72;;;;;;;19.73;100.00;95059.13;4962235;28;20118;-85
2022/06/18 05:13:38;;;;;;;10.70;4.70;;;;;;;19.95;100.00;95064.69;4978325;28;20038;-87
2022/06/18 05:16:04;;;;;;;7.00;5.30;;;;;;;19.60;100.00;95065.34;4978531;28;20416;-87
2022/06/18 05:18:32;;;;;;;10.13;5.40;;;;;;;19.77;100.00;95053.97;4958393;29;20051;-87
2022/06/18 05:20:58;;;;;;;8.20;5.03;;;;;;;20.27;100.00;95054.72;4965936;28;20041;-86
2022/06/18 05:23:23;;;;;;;14.13;5.20;;;;;;;19.91;100.00;95062.59;4986904;28;20030;-87
2022/06/18 05:25:55;;;;;;;6.03;4.82;;;;;;;19.85;100.00;95063.84;4968347;28;20384;-87
2022/06/18 05:28:21;;;;;;;11.82;5.38;;;;;;;19.67;100.00;95059.59;4959240;29;20121;-87
2022/06/18 05:30:46;;;;;;;10.57;5.43;;;;;;;19.60;100.00;95068.78;4965473;28;20122;-87
2022/06/18 05:33:12;;;;;;;8.48;5.28;;;;;;;19.79;100.00;95062.41;4996089;28;20402;-87
2022/06/18 05:35:38;;;;;;;11.23;5.20;;;;;;;20.50;100.00;95071.31;4985500;28;20034;-88
2022/06/18 05:38:04;;;;;;;6.88;4.40;;;;;;;20.99;100.00;95073.00;4965189;28;20034;-87
2022/06/18 05:40:29;;;;;;;7.13;4.05;;;;;;;21.23;100.00;95069.03;4977926;28;20035;-87
2022/06/18 05:43:55;;;;;;;11.80;4.88;;;;;;;21.52;100.00;95073.66;4961469;28;20026;-87
2022/06/18 05:46:21;;;;;;;11.98;4.78;;;;;;;21.87;100.00;95078.84;4948563;28;20082;-87
2022/06/18 05:48:46;;;;;;;10.15;5.45;;;;;;;22.10;100.00;95073.22;4942754;29;20122;-87
2022/06/18 05:51:12;;;;;;;13.48;5.30;;;;;;;22.10;100.00;95075.09;4942804;29;20047;-87
2022/06/18 05:53:37;;;;;;;10.07;4.50;;;;;;;22.28;100.00;95073.88;4958458;29;20357;-86
2022/06/18 05:56:11;;;;;;;11.02;5.10;;;;;;;21.09;100.00;95075.34;4958325;29;20086;-86
2022/06/18 05:58:37;;;;;;;5.93;4.43;;;;;;;21.92;100.00;95077.88;4943034;29;20444;-87
2022/06/18 06:01:03;;;;;;;8.85;4.88;;;;;;;21.73;100.00;95079.06;4959309;28;20027;-87
2022/06/18 06:03:28;;;;;;;8.50;5.03;;;;;;;21.08;100.00;95076.44;4942362;29;20023;-87
2022/06/18 06:05:54;;;;;;;10.77;5.45;;;;;;;21.27;100.00;95070.75;4958154;29;20035;-86
2022/06/18 06:08:19;;;;;;;8.20;4.63;;;;;;;22.14;100.00;95081.34;4958611;28;20035;-87
2022/06/18 06:13:32;;;;;;;6.93;4.50;;;;;;;21.45;100.00;95084.81;4972024;28;20113;-87
2022/06/18 06:16:00;;;;;;;11.13;4.55;;;;;;;21.45;100.00;95092.00;4970832;28;20038;-87
2022/06/18 06:18:27;;;;;;;11.55;4.70;;;;;;;21.51;100.00;95088.06;4977301;28;20322;-86
2022/06/18 06:20:54;;;;;;;7.07;4.60;;;;;;;22.49;100.00;95088.34;4973678;28;20035;-87
2022/06/18 06:23:29;;;;;;;8.55;4.65;;;;;;;22.92;100.00;95094.47;4964767;28;20038;-86
2022/06/18 06:25:55;;;;;;;7.50;4.50;;;;;;;23.16;100.00;95099.09;4957709;29;20023;-87
2022/06/18 06:28:26;;;;;;;7.30;4.72;;;;;;;22.81;100.00;95094.84;4957805;29;20087;-88
2022/06/18 06:30:52;;;;;;;6.38;4.50;;;;;;;22.97;100.00;95100.38;4972867;28;20034;-87
2022/06/18 06:33:18;;;;;;;10.40;4.68;;;;;;;23.36;100.00;95094.81;4978111;28;20109;-87
2022/06/18 06:35:44;;;;;;;8.45;4.50;;;;;;;23.61;100.00;95096.75;4976987;28;20125;-87
2022/06/18 06:38:11;;;;;;;8.73;4.53;;;;;;;23.40;100.00;95101.06;4961186;28;20458;-87
2022/06/18 06:40:37;;;;;;;6.18;4.57;;;;;;;23.48;100.00;95104.75;4960935;28;20049;-87
2022/06/18 06:43:03;;;;;;;6.40;4.82;;;;;;;23.42;100.00;95098.84;4978073;28;20026;-87
2022/06/18 06:45:32;;;;;;;13.50;5.43;;;;;;;23.70;100.00;95089.41;4976966;28;20074;-87
2022/06/18 06:47:58;;;;;;;10.25;5.32;;;;;;;23.26;100.00;95096.03;4976714;28;20026;-87
2022/06/18 06:50:24;;;;;;;9.48;5.28;;;;;;;23.10;100.00;95092.41;4960252;28;20035;-87
2022/06/18 06:52:50;;;;;;;8.27;5.28;;;;;;;23.00;100.00;95093.59;4976039;28;20038;-89
2022/06/18 06:58:03;;;;;;;8.85;5.22;;;;;;;23.46;100.00;95096.28;4976474;28;20038;-90
2022/06/18 07:00:28;;;;;;;8.32;4.60;;;;;;;23.77;100.00;95096.88;4977582;28;20030;-88
2022/06/18 07:02:54;;;;;;;7.43;4.22;;;;;;;24.20;100.00;95100.09;4960718;28;20025;-89
2022/06/18 07:05:19;;;;;;;15.25;4.50;;;;;;;24.14;100.00;95097.66;4975740;28;20046;-88
2022/06/18 07:07:45;;;;;;;10.48;4.65;;;;;;;24.25;100.00;95097.97;4977731;28;20402;-86
2022/06/18 07:10:11;;;;;;;70.78;9.05;;;;;;;23.70;100.00;95086.72;4976033;28;20031;-88
2022/06/18 07:12:37;;;;;;;14.68;4.57;;;;;;;23.72;100.00;95093.28;4977459;28;20027;-88
2022/06/18 07:15:13;;;;;;;8.48;4.80;;;;;;;23.72;100.00;95090.63;4964469;28;20459;-88
2022/06/18 07:17:38;;;;;;;11.82;5.20;;;;;;;23.99;100.00;95087.63;4980223;28;20026;-88
2022/06/18 07:20:05;;;;;;;10.38;5.07;;;;;;;23.78;100.00;95093.84;4996268;28;20030;-88
2022/06/18 07:22:32;;;;;;;12.30;4.40;;;;;;;24.51;100.00;95096.03;4996896;28;20023;-89
2022/06/18 07:24:58;;;;;;;8.93;5.07;;;;;;;24.45;100.00;95087.44;4980034;28;20026;-88
2022/06/18 07:27:24;;;;;;;14.45;4.93;;;;;;;24.05;100.00;95099.69;4995698;28;20126;-87
2022/06/18 07:29:50;;;;;;;6.88;4.93;;;;;;;24.22;100.00;95095.19;4979710;28;20132;-86
2022/06/18 07:32:17;;;;;;;8.10;4.97;;;;;;;24.23;100.00;95091.41;4979252;28;20037;-88
2022/06/18 07:34:44;;;;;;;8.93;4.90;;;;;;;24.27;100.00;95105.69;4995574;28;20080;-87
2022/06/18 07:37:10;;;;;;;8.88;4.70;;;;;;;24.60;100.00;95094.00;4996834;28;20030;-87
2022/06/18 07:39:35;;;;;;;6.72;4.75;;;;;;;25.15;100.00;95090.09;4979811;28;20073;-88
2022/06/18 07:42:01;;;;;;;16.25;4.57;;;;;;;25.11;100.00;95085.44;4979430;28;20142;-88
2022/06/18 07:44:27;;;;;;;9.18;4.85;;;;;;;25.23;100.00;95084.59;4995814;28;20026;-89
2022/06/18 07:46:57;;;;;;;12.18;5.07;;;;;;;24.74;100.00;95090.16;4996945;28;20053;-88
2022/06/18 07:49:22;;;;;;;7.80;4.30;;;;;;;25.48;100.00;95081.00;4995822;28;20037;-87
2022/06/18 07:51:48;;;;;;;6.35;4.68;;;;;;;24.81;100.00;95085.00;4995261;28;20034;-88
2022/06/18 07:54:15;;;;;;;8.18;4.55;;;;;;;25.39;100.00;95087.28;4995319;28;20038;-88
2022/06/18 07:56:40;;;;;;;6.82;4.38;;;;;;;25.92;100.00;95085.47;4996894;28;20045;-88
2022/06/18 07:59:06;;;;;;;6.63;4.40;;;;;;;25.91;100.00;95087.41;4979413;28;20030;-88
2022/06/18 08:01:31;;;;;;;7.45;4.05;;;;;;;26.05;100.00;95086.94;4995405;28;20348;-88
2022/06/18 08:03:57;;;;;;;8.13;4.28;;;;;;;26.79;100.00;95087.31;4979461;28;20080;-88
2022/06/18 08:06:22;;;;;;;9.05;4.75;;;;;;;26.66;100.00;95084.00;4998479;28;20057;-88
2022/06/18 08:08:48;;;;;;;8.48;3.83;;;;;;;25.70;87.92;95090.38;4999069;28;20038;-88
2022/06/18 08:11:15;;;;;;;9.13;3.80;;;;;;;26.13;100.00;95082.50;4983338;28;20176;-88
2022/06/18 08:13:41;;;;;;;8.52;3.38;;;;;;;26.64;95.17;95075.53;4999737;28;20046;-88
2022/06/18 08:16:08;;;;;;;6.70;4.05;;;;;;;26.69;100.00;95077.91;4999237;28;20034;-88
2022/06/18 08:18:33;;;;;;;5.38;4.07;;;;;;;25.40;100.00;95074.66;4983036;28;20427;-88
2022/06/18 08:21:08;;;;;;;6.05;3.72;;;;;;;25.81;100.00;95077.19;4998915;28;20097;-89
2022/06/18 08:23:34;;;;;;;6.00;3.70;;;;;;;26.18;100.00;95074.22;4982674;28;20026;-91
2022/06/18 08:26:00;;;;;;;9.43;4.60;;;;;;;26.67;100.00;95072.13;4982850;28;20038;-90
2022/06/18 08:28:25;;;;;;;9.93;4.40;;;;;;;26.02;100.00;95071.53;4975897;28;20085;-91
2022/06/18 08:30:51;;;;;;;7.07;3.70;;;;;;;26.33;100.00;95072.59;4973051;28;20045;-92
2022/06/18 08:33:17;;;;;;;6.90;3.72;;;;;;;26.42;100.00;95074.31;4995971;28;20030;-89
2022/06/18 08:35:43;;;;;;;7.97;4.95;;;;;;;26.24;100.00;95075.50;4977752;28;20076;-90
2022/06/18 08:38:09;;;;;;;8.93;4.50;;;;;;;26.39;100.00;95079.22;4963109;28;20038;-86
2022/06/18 08:40:59;;;;;;;9.05;4.78;;;;;;;26.58;100.00;95080.41;4978935;28;20101;-89
2022/06/18 08:43:36;;;;;;;9.93;4.78;;;;;;;26.56;100.00;95073.81;4954172;28;20066;-89
2022/06/18 08:46:29;;;;;;;7.25;4.05;;;;;;;26.62;100.00;95075.09;4960639;28;20035;-89
2022/06/18 08:49:12;;;;;;;13.77;4.28;;;;;;;26.68;93.68;95063.72;4961660;28;20433;-89
2022/06/18 08:52:00;;;;;;;13.27;4.00;;;;;;;26.19;100.00;95072.28;4968253;28;20431;-89
2022/06/18 08:54:28;;;;;;;11.13;5.65;;;;;;;26.59;100.00;95070.41;4972808;28;20034;-88
2022/06/18 08:57:13;;;;;;;12.30;6.35;;;;;;;26.49;100.00;95077.13;4978870;28;20392;-91
2022/06/18 09:00:15;;;;;;;27.48;16.45;;;;;;;26.50;100.00;95084.06;4979061;28;20074;-90
2022/06/18 09:03:10;;;;;;;6.18;3.97;;;;;;;26.70;100.00;95076.78;4961130;28;20038;-89
2022/06/18 09:05:49;;;;;;;13.70;4.32;;;;;;;26.80;100.00;95078.91;4946409;28;20047;-88
2022/06/18 09:08:27;;;;;;;11.98;4.72;;;;;;;26.52;100.00;95087.16;4959463;28;20031;-89
2022/06/18 09:11:19;;;;;;;5.95;3.55;;;;;;;26.08;100.00;95086.22;4959303;28;20042;-90
2022/06/18 09:13:47;;;;;;;5.95;3.90;;;;;;;26.10;100.00;95088.56;4959722;28;20059;-88
2022/06/18 09:16:17;;;;;;;9.20;3.88;;;;;;;26.16;88.04;95092.53;4959420;28;20353;-89
2022/06/18 09:18:47;;;;;;;11.45;4.22;;;;;;;26.46;92.21;95094.72;4943566;29;20202;-88
2022/06/18 09:21:38;;;;;;;8.50;4.28;;;;;;;26.86;99.70;95095.56;4943800;29;20030;-89
2022/06/18 09:24:06;;;;;;;9.60;4.60;;;;;;;27.02;94.26;95103.53;4959499;28;20117;-88
2022/06/18 09:26:35;;;;;;;9.93;4.55;;;;;;;26.80;100.00;95094.25;4959593;28;20027;-88
2022/06/18 09:29:16;;;;;;;6.22;4.22;;;;;;;27.25;99.63;95100.09;4959340;28;20038;-89
2022/06/18 09:31:48;;;;;;;7.35;4.43;;;;;;;27.54;91.38;95099.84;4959339;29;20035;-88
2022/06/18 09:34:38;;;;;;;8.00;4.50;;;;;;;27.33;94.53;95101.00;4959164;28;20034;-88
2022/06/18 09:37:19;;;;;;;10.90;4.70;;;;;;;26.85;96.98;95098.56;4954575;28;20438;-88
2022/06/18 09:39:52;;;;;;;9.27;4.43;;;;;;;26.80;100.00;95099.63;4975551;28;20118;-87
2022/06/18 09:42:23;;;;;;;;;;;;;;;26.79;100.00;95100.75;4962049;28;20105;-89
2022/06/18 09:45:31;;;;;;;9.27;4.70;;;;;;;27.14;100.00;95099.91;4985814;28;19960;-88
2022/06/18 09:47:57;;;;;;;21.45;5.25;;;;;;;26.11;100.00;95098.19;4957200;29;20440;-88
2022/06/18 09:50:32;;;;;;;12.13;4.25;;;;;;;26.36;87.64;95100.66;4942335;29;20027;-88
2022/06/18 09:53:07;;;;;;;11.48;4.80;;;;;;;26.32;97.72;95097.91;4942328;29;20341;-89
2022/06/18 09:55:47;;;;;;;12.30;5.07;;;;;;;26.35;100.00;95102.56;4942652;29;20035;-87
2022/06/18 09:58:17;;;;;;;6.75;4.90;;;;;;;26.91;100.00;95099.88;4967092;28;20026;-88
2022/06/18 10:00:45;;;;;;;7.38;4.35;;;;;;;27.41;92.79;95107.28;4977574;28;20332;-87
2022/06/18 10:06:52;;;;;;;7.47;5.00;;;;;;;27.50;94.60;95111.28;4976377;28;20034;-88
2022/06/18 10:08:47;;;;;;;10.02;4.85;;;;;;;27.27;100.00;95108.59;4977638;28;20037;-88
2022/06/18 10:11:13;;;;;;;9.57;4.80;;;;;;;27.39;91.10;95121.09;4961629;28;20027;-87
2022/06/18 10:13:49;;;;;;;5.90;4.40;;;;;;;27.12;78.57;95112.94;4977468;28;20023;-89
2022/06/18 10:16:37;;;;;;;9.52;4.47;;;;;;;27.43;91.26;95119.25;4961339;28;20038;-88
2022/06/18 10:19:02;;;;;;;8.00;4.18;;;;;;;26.65;83.31;95114.69;4961408;28;20035;-90
2022/06/18 10:21:38;;;;;;;4.38;3.60;;;;;;;26.53;76.85;95111.00;4977274;28;20038;-88
2022/06/18 10:24:10;;;;;;;5.85;3.80;;;;;;;26.68;83.99;95109.41;4961333;28;20027;-88
2022/06/18 10:26:36;;;;;;;8.05;3.95;;;;;;;26.76;85.98;95106.84;4984799;28;20321;-89
2022/06/18 10:29:05;;;;;;;8.85;3.55;;;;;;;26.57;84.47;95112.97;4986442;28;20034;-87
2022/06/18 10:31:39;;;;;;;5.93;3.58;;;;;;;26.94;90.73;95105.31;4977018;28;20031;-88
2022/06/18 10:34:23;;;;;;;6.68;3.45;;;;;;;26.84;85.38;95107.75;4977537;28;20062;-89
2022/06/18 10:37:20;;;;;;;7.80;3.28;;;;;;;27.00;78.48;95105.03;4977473;28;20081;-88
2022/06/18 10:39:51;;;;;;;8.48;3.40;;;;;;;27.09;71.02;95119.00;4976072;28;20026;-87
2022/06/18 10:42:19;;;;;;;5.38;3.00;;;;;;;26.82;81.38;95113.47;4961432;28;20114;-89
2022/06/18 10:44:54;;;;;;;6.32;3.67;;;;;;;26.75;80.16;95116.03;4957856;28;20345;-88
2022/06/18 10:47:20;;;;;;;4.57;3.03;;;;;;;26.62;77.30;95110.81;4962196;28;20031;-89
2022/06/18 10:49:47;;;;;;;5.53;3.22;;;;;;;27.25;71.34;95113.56;4957877;28;20029;-89
2022/06/18 10:52:24;;;;;;;6.93;3.15;;;;;;;26.98;73.36;95110.75;4976076;28;20039;-89
2022/06/18 10:55:08;;;;;;;7.15;3.20;;;;;;;27.15;75.77;95114.91;4966676;28;20027;-89
2022/06/18 10:57:33;;;;;;;9.32;3.38;;;;;;;27.09;75.73;95111.75;4960891;28;20082;-90
2022/06/18 11:00:19;;;;;;;8.02;3.40;;;;;;;27.21;75.55;95105.41;4961052;28;20424;-88
2022/06/18 11:02:48;;;;;;;7.13;3.28;;;;;;;27.42;78.57;95098.88;4978138;28;20030;-88
2022/06/18 11:05:43;;;;;;;4.53;3.20;;;;;;;27.06;77.73;95098.22;4976796;28;20031;-87
2022/06/18 11:08:50;;;;;;;5.28;3.03;;;;;;;27.36;67.68;95103.75;4953552;28;20082;-88
2022/06/18 11:11:27;;;;;;;5.07;2.58;;;;;;;27.96;67.23;95100.88;4959769;28;20053;-88
2022/06/18 11:13:53;;;;;;;5.03;2.90;;;;;;;27.72;72.82;95105.50;4959145;28;20047;-88
2022/06/18 11:16:21;;;;;;;5.30;2.80;;;;;;;27.72;78.34;95106.31;4960741;28;20472;-89
2022/06/18 11:18:54;;;;;;;12.68;3.05;;;;;;;27.18;68.50;95098.06;4976033;28;20035;-88
2022/06/18 11:21:37;;;;;;;7.28;2.90;;;;;;;27.08;66.79;95091.38;4967983;28;20034;-87
2022/06/18 11:24:23;;;;;;;17.20;3.30;;;;;;;27.14;72.41;95089.16;4957509;28;20031;-88
2022/06/18 11:26:49;;;;;;;5.78;2.70;;;;;;;27.69;73.36;95090.88;4957315;29;20023;-88
2022/06/18 11:29:29;;;;;;;5.60;2.70;;;;;;;28.02;69.49;95083.28;4973334;28;20053;-88
2022/06/18 11:31:57;;;;;;;5.82;3.20;;;;;;;27.64;72.05;95086.56;4973385;28;20177;-89
2022/06/18 11:34:26;;;;;;;11.95;3.72;;;;;;;27.84;70.49;95091.09;4957506;29;20035;-90
2022/06/18 11:36:55;;;;;;;8.00;2.92;;;;;;;27.19;71.18;95083.47;4941986;29;20035;-91
2022/06/18 11:39:35;;;;;;;7.65;2.88;;;;;;;27.12;71.94;95080.69;4957579;28;20373;-91
2022/06/18 11:42:11;;;;;;;4.80;2.67;;;;;;;27.31;60.14;95079.06;4962054;28;20023;-91
2022/06/18 11:44:43;;;;;;;11.07;3.00;;;;;;;27.69;64.46;95073.94;4961456;29;20035;-91
2022/06/18 11:47:36;;;;;;;6.17;2.87;;;;;;;28.25;69.68;95079.78;4961586;28;20034;-91
2022/06/18 11:50:13;;;;;;;5.63;2.95;;;;;;;28.59;68.47;95072.50;4958825;29;20058;-92
2022/06/18 11:52:49;;;;;;;5.00;3.28;;;;;;;27.80;77.24;95075.66;4961773;28;20063;-94
2022/06/18 11:55:34;;;;;;;6.75;2.72;;;;;;;28.18;66.48;95073.13;4962600;28;20504;-95
2022/06/18 11:58:00;;;;;;;6.22;3.20;;;;;;;27.96;66.24;95073.97;4961593;28;20086;-93
2022/06/18 12:00:37;;;;;;;4.57;2.88;;;;;;;27.90;62.91;95060.81;4977811;28;20039;-93
2022/06/18 12:03:36;;;;;;;6.35;2.80;;;;;;;27.93;64.31;95057.41;4961537;29;20023;-92
2022/06/18 12:06:20;;;;;;;12.10;3.10;;;;;;;27.92;69.15;95063.91;4977755;28;20038;-92
2022/06/18 12:08:49;;;;;;;8.13;2.80;;;;;;;28.16;65.69;95059.22;4978079;28;20374;-93
2022/06/18 12:11:44;;;;;;;9.93;2.90;;;;;;;28.76;65.56;95054.22;4962175;28;20353;-92
2022/06/18 12:14:15;;;;;;;5.25;2.45;;;;;;;28.97;65.22;95052.91;4961714;29;20031;-93
2022/06/18 12:16:59;;;;;;;7.82;2.88;;;;;;;28.84;60.06;95055.88;4962134;28;20086;-94
2022/06/18 12:19:47;;;;;;;5.45;3.00;;;;;;;28.73;61.08;95049.56;4977194;28;20085;-92
2022/06/18 12:22:28;;;;;;;6.28;2.90;;;;;;;28.78;62.65;95051.91;4979473;28;20027;-91
2022/06/18 12:25:26;;;;;;;6.43;2.72;;;;;;;28.63;66.22;95043.69;4978377;28;20456;-91
2022/06/18 12:28:11;;;;;;;4.47;2.95;;;;;;;28.97;62.65;95048.31;4961675;28;20035;-94
2022/06/18 12:31:01;;;;;;;8.25;3.00;;;;;;;29.13;61.01;95053.47;4961215;28;20055;-93
2022/06/18 12:33:35;;;;;;;3.65;2.78;;;;;;;29.69;63.45;95050.84;4960698;29;20127;-93
2022/06/18 12:36:22;;;;;;;7.20;2.50;;;;;;;29.98;63.21;95048.34;4977019;28;20413;-93
2022/06/18 12:39:13;;;;;;;5.90;3.00;;;;;;;29.90;61.03;95052.19;4977759;28;20035;-94
2022/06/18 12:42:04;;;;;;;7.15;3.20;;;;;;;29.76;60.03;95039.34;4977382;28;20030;-94
2022/06/18 12:45:03;;;;;;;6.82;3.30;;;;;;;29.52;59.45;95038.00;4957526;28;20047;-91
2022/06/18 12:48:08;;;;;;;5.13;2.80;;;;;;;29.21;58.56;95038.88;4977806;28;20039;-95
2022/06/18 12:50:47;;;;;;;9.10;2.70;;;;;;;28.95;61.45;95033.63;4945276;28;20043;-92
2022/06/18 12:53:27;;;;;;;5.55;2.67;;;;;;;29.37;59.83;95031.72;4961329;28;20093;-92